Rechercher aéroport 
image banner adimage banner adimage banner ad
image banner ad

KUKI - Ukiah Muni

Situé à Ukiah, United States

ICAO - UKI, IATA -

Données fournies par Airmate  

Information générale

Coordonnées: N39°7'33" W123°12'3"
Élévation : 617 feet MSL.
Variation magnétique : 17° East
Voir autres Aéroports à California

Données opérationnelles

Special qualification required
Heure actuelle UTC:
Heure actuelle locale:
Météo
METAR: KUKI 291456Z AUTO 00000KT 10SM CLR 21/12 A2995 RMK AO2 SLP134 T02110117 53005
TAF: KUKI 291123Z 2912/3012 VRB03KT P6SM SKC FM292000 14007KT P6SM SKC FM300100 30008KT P6SM SKC FM300400 VRB03KT P6SM SKC
Voir NOTAMs / SUP AIP / TFR affectant cet aéroport [VIEW]
Fréquences de communication: [VIEW]

Pistes:

Identifiant RWYQFULongueur (ft)Largeur (ft)SurfaceLDA (ft)
15168°4423150ASPH
33348°4423150ASPH

Coordonnées de l'aéroport

Adresse: Ukiah United States

Autres services d'aviation

Écoles de pilotage

Ukiah Aviation

Ukiah Aviation
dhudsons@comcast.net+1(707)463-2655

Vue satellite de KUKI